HCMM

Mogadishu International Airport

Airport
ICAO code
HCMM
Summary
ICAO Region
AFI
ICAO Territory
Location

Mogadishu,

Coordinates
2° 1' 1" N , 45° 18' 25" E
Metar
Observation
HCMM 170800Z 20013KT 9999 SCT022 28/23 Q1013
Station
Mogadiscio
Date/Time
2022-08-17 08:00:00
Wind direction
200°
Wind speed
13 kts
Lowest cloud amount
scattered clouds
Temperature
28°C
Dew point
23°C
Humidity
74%
QNH
1013 hPa
Weather condition
n/a

Description

Aden Adde International Airport, formerly known as Mogadishu International Airport, is an international airport serving Mogadishu, the capital of Somalia.

Climatology

Runways

Designator Length Width Surface Rops
5/23 3150 0 UNK Yes/Yes

Airport map

Aerial View

SKYbrary Partners:

Safety knowledge contributed by: